Springlake, Texas
Current Conditions -  °F | °C
As of 5:15 PM on Tuesday 25 Nov 2014 (Local Time) from KPVW Reporting Station
Clear Clear  
Wind Chill: 50°   Ceiling: Unl
Heat Index: 50°   Visibility: 10mi
Dew Point: 14°   Wind: 17mph
Humidity: 24%   Direction: 240°WSW
Pressure: 30.04"   Gusts: NA
Location:  34.23°N, 102.31°W
Report Text: KPVW 252315Z AUTO 24015KT 10SM CLR 10/M10 A3004 RMK AO2 T01001100
Loading
Personal Weather Stations






























Interactive Weather Map New forecast layout! Learn more

10-Day Weather Forecast

Advertisements
Track Severe Weather on mobile